Aviation Digital Data Service (ADDS)

Output produced by METARs form (1654 UTC 25 July 2017)
found at http://aviationweather.gov/adds/metars/
 
KOEO 251635Z AUTO 15010G14KT 10SM OVC014 22/18 A3004 RMK AO2 T02170179